sensor_id;sensor_type;location;lat;lon;timestamp;P1;durP1;ratioP1;P2;durP2;ratioP2
72275;SDS011;61204;49.980;8.358;2024-01-06T00:01:23;4.30;;;2.90;;
72275;SDS011;61204;49.980;8.358;2024-01-06T00:03:50;5.40;;;2.83;;
72275;SDS011;61204;49.980;8.358;2024-01-06T00:06:16;6.03;;;2.67;;
72275;SDS011;61204;49.980;8.358;2024-01-06T00:08:44;6.43;;;2.95;;
72275;SDS011;61204;49.980;8.358;2024-01-06T00:11:09;7.78;;;3.63;;
72275;SDS011;61204;49.980;8.358;2024-01-06T00:13:35;6.03;;;2.75;;
72275;SDS011;61204;49.980;8.358;2024-01-06T00:16:01;4.65;;;2.83;;
72275;SDS011;61204;49.980;8.358;2024-01-06T00:18:26;4.32;;;2.70;;
72275;SDS011;61204;49.980;8.358;2024-01-06T00:20:52;7.55;;;2.75;;
72275;SDS011;61204;49.980;8.358;2024-01-06T00:23:17;8.02;;;3.03;;
72275;SDS011;61204;49.980;8.358;2024-01-06T00:25:43;6.35;;;2.88;;
72275;SDS011;61204;49.980;8.358;2024-01-06T00:28:09;5.03;;;2.72;;
72275;SDS011;61204;49.980;8.358;2024-01-06T00:30:36;6.32;;;2.90;;
72275;SDS011;61204;49.980;8.358;2024-01-06T00:33:02;5.10;;;2.53;;
72275;SDS011;61204;49.980;8.358;2024-01-06T00:35:28;6.63;;;3.42;;
72275;SDS011;61204;49.980;8.358;2024-01-06T00:37:54;5.80;;;2.90;;
72275;SDS011;61204;49.980;8.358;2024-01-06T00:40:20;6.95;;;2.97;;
72275;SDS011;61204;49.980;8.358;2024-01-06T00:42:46;5.65;;;2.65;;
72275;SDS011;61204;49.980;8.358;2024-01-06T00:45:13;7.50;;;3.53;;
72275;SDS011;61204;49.980;8.358;2024-01-06T00:47:39;5.18;;;2.80;;
72275;SDS011;61204;49.980;8.358;2024-01-06T00:50:05;5.38;;;2.95;;
72275;SDS011;61204;49.980;8.358;2024-01-06T00:52:31;6.70;;;2.40;;
72275;SDS011;61204;49.980;8.358;2024-01-06T00:54:56;3.83;;;2.55;;
72275;SDS011;61204;49.980;8.358;2024-01-06T00:57:22;4.90;;;3.40;;
72275;SDS011;61204;49.980;8.358;2024-01-06T00:59:49;4.57;;;2.22;;
72275;SDS011;61204;49.980;8.358;2024-01-06T01:02:15;6.07;;;2.40;;
72275;SDS011;61204;49.980;8.358;2024-01-06T01:04:41;4.90;;;2.03;;
72275;SDS011;61204;49.980;8.358;2024-01-06T01:07:07;6.45;;;2.13;;
72275;SDS011;61204;49.980;8.358;2024-01-06T01:09:35;5.93;;;2.70;;
72275;SDS011;61204;49.980;8.358;2024-01-06T01:12:03;6.28;;;3.17;;
72275;SDS011;61204;49.980;8.358;2024-01-06T01:14:29;5.55;;;1.95;;
72275;SDS011;61204;49.980;8.358;2024-01-06T01:16:54;6.88;;;2.90;;
72275;SDS011;61204;49.980;8.358;2024-01-06T01:19:20;7.90;;;3.53;;
72275;SDS011;61204;49.980;8.358;2024-01-06T01:21:45;8.77;;;2.75;;
72275;SDS011;61204;49.980;8.358;2024-01-06T01:24:13;4.38;;;2.08;;
72275;SDS011;61204;49.980;8.358;2024-01-06T01:26:39;7.13;;;2.10;;
72275;SDS011;61204;49.980;8.358;2024-01-06T01:29:04;2.45;;;1.80;;
72275;SDS011;61204;49.980;8.358;2024-01-06T01:31:30;6.97;;;2.30;;
72275;SDS011;61204;49.980;8.358;2024-01-06T01:33:58;5.82;;;1.60;;
72275;SDS011;61204;49.980;8.358;2024-01-06T01:36:23;3.90;;;2.25;;
72275;SDS011;61204;49.980;8.358;2024-01-06T01:38:49;5.60;;;1.77;;
72275;SDS011;61204;49.980;8.358;2024-01-06T01:41:14;7.55;;;2.40;;
72275;SDS011;61204;49.980;8.358;2024-01-06T01:43:42;4.85;;;1.70;;
72275;SDS011;61204;49.980;8.358;2024-01-06T01:46:08;4.10;;;1.85;;
72275;SDS011;61204;49.980;8.358;2024-01-06T01:48:33;7.38;;;2.00;;
72275;SDS011;61204;49.980;8.358;2024-01-06T01:51:01;8.07;;;2.20;;
72275;SDS011;61204;49.980;8.358;2024-01-06T01:53:27;8.57;;;2.10;;
72275;SDS011;61204;49.980;8.358;2024-01-06T01:55:56;5.85;;;1.67;;
72275;SDS011;61204;49.980;8.358;2024-01-06T01:58:22;5.85;;;1.80;;
72275;SDS011;61204;49.980;8.358;2024-01-06T02:00:49;5.40;;;1.98;;
72275;SDS011;61204;49.980;8.358;2024-01-06T02:03:15;4.97;;;1.52;;
72275;SDS011;61204;49.980;8.358;2024-01-06T02:05:42;3.33;;;1.50;;
72275;SDS011;61204;49.980;8.358;2024-01-06T02:08:07;3.97;;;1.70;;
72275;SDS011;61204;49.980;8.358;2024-01-06T02:10:33;3.17;;;1.90;;
72275;SDS011;61204;49.980;8.358;2024-01-06T02:13:11;6.05;;;2.17;;
72275;SDS011;61204;49.980;8.358;2024-01-06T02:15:38;3.00;;;2.03;;
72275;SDS011;61204;49.980;8.358;2024-01-06T02:18:04;6.18;;;1.85;;
72275;SDS011;61204;49.980;8.358;2024-01-06T02:20:30;6.47;;;2.85;;
72275;SDS011;61204;49.980;8.358;2024-01-06T02:22:56;4.18;;;1.98;;
72275;SDS011;61204;49.980;8.358;2024-01-06T02:25:24;4.82;;;1.90;;
72275;SDS011;61204;49.980;8.358;2024-01-06T02:27:52;4.78;;;2.05;;
72275;SDS011;61204;49.980;8.358;2024-01-06T02:30:21;5.25;;;2.28;;
72275;SDS011;61204;49.980;8.358;2024-01-06T02:32:49;8.05;;;2.63;;
72275;SDS011;61204;49.980;8.358;2024-01-06T02:35:17;5.18;;;1.80;;
72275;SDS011;61204;49.980;8.358;2024-01-06T02:37:45;5.63;;;1.77;;
72275;SDS011;61204;49.980;8.358;2024-01-06T02:40:11;6.32;;;2.67;;
72275;SDS011;61204;49.980;8.358;2024-01-06T02:42:38;7.65;;;2.33;;
72275;SDS011;61204;49.980;8.358;2024-01-06T02:45:04;7.07;;;2.53;;
72275;SDS011;61204;49.980;8.358;2024-01-06T02:47:34;4.38;;;1.77;;
72275;SDS011;61204;49.980;8.358;2024-01-06T02:50:00;4.30;;;2.05;;
72275;SDS011;61204;49.980;8.358;2024-01-06T02:52:25;4.45;;;1.65;;
72275;SDS011;61204;49.980;8.358;2024-01-06T02:54:51;6.38;;;1.60;;
72275;SDS011;61204;49.980;8.358;2024-01-06T02:57:17;6.55;;;1.80;;
72275;SDS011;61204;49.980;8.358;2024-01-06T02:59:45;5.95;;;2.10;;
72275;SDS011;61204;49.980;8.358;2024-01-06T03:02:11;3.85;;;1.65;;
72275;SDS011;61204;49.980;8.358;2024-01-06T03:04:36;3.67;;;1.58;;
72275;SDS011;61204;49.980;8.358;2024-01-06T03:07:02;4.40;;;1.98;;
72275;SDS011;61204;49.980;8.358;2024-01-06T03:09:28;5.65;;;1.50;;
72275;SDS011;61204;49.980;8.358;2024-01-06T03:11:56;2.03;;;1.40;;
72275;SDS011;61204;49.980;8.358;2024-01-06T03:14:22;7.07;;;2.25;;
72275;SDS011;61204;49.980;8.358;2024-01-06T03:16:47;7.00;;;1.90;;
72275;SDS011;61204;49.980;8.358;2024-01-06T03:19:13;3.92;;;1.88;;
72275;SDS011;61204;49.980;8.358;2024-01-06T03:21:38;3.15;;;1.80;;
72275;SDS011;61204;49.980;8.358;2024-01-06T03:24:04;10.02;;;2.42;;
72275;SDS011;61204;49.980;8.358;2024-01-06T03:26:34;4.00;;;1.75;;
72275;SDS011;61204;49.980;8.358;2024-01-06T03:29:02;6.50;;;2.63;;
72275;SDS011;61204;49.980;8.358;2024-01-06T03:31:28;5.68;;;2.63;;
72275;SDS011;61204;49.980;8.358;2024-01-06T03:33:54;6.10;;;2.45;;
72275;SDS011;61204;49.980;8.358;2024-01-06T03:36:21;3.33;;;2.70;;
72275;SDS011;61204;49.980;8.358;2024-01-06T03:38:50;9.50;;;2.67;;
72275;SDS011;61204;49.980;8.358;2024-01-06T03:41:23;7.03;;;3.30;;
72275;SDS011;61204;49.980;8.358;2024-01-06T03:43:50;7.88;;;2.55;;
72275;SDS011;61204;49.980;8.358;2024-01-06T03:46:18;6.00;;;2.58;;
72275;SDS011;61204;49.980;8.358;2024-01-06T03:48:44;7.55;;;3.35;;
72275;SDS011;61204;49.980;8.358;2024-01-06T03:51:10;8.65;;;3.45;;
72275;SDS011;61204;49.980;8.358;2024-01-06T03:53:35;5.35;;;2.80;;
72275;SDS011;61204;49.980;8.358;2024-01-06T03:56:02;10.38;;;3.47;;
72275;SDS011;61204;49.980;8.358;2024-01-06T03:58:29;5.85;;;2.58;;
72275;SDS011;61204;49.980;8.358;2024-01-06T04:00:55;4.85;;;3.05;;
72275;SDS011;61204;49.980;8.358;2024-01-06T04:03:20;7.82;;;2.97;;
72275;SDS011;61204;49.980;8.358;2024-01-06T04:05:46;4.88;;;2.72;;
72275;SDS011;61204;49.980;8.358;2024-01-06T04:08:14;6.13;;;3.00;;
72275;SDS011;61204;49.980;8.358;2024-01-06T04:10:39;7.35;;;2.67;;
72275;SDS011;61204;49.980;8.358;2024-01-06T04:13:08;4.63;;;2.58;;
72275;SDS011;61204;49.980;8.358;2024-01-06T04:15:36;5.32;;;2.90;;
72275;SDS011;61204;49.980;8.358;2024-01-06T04:18:02;7.38;;;2.85;;
72275;SDS011;61204;49.980;8.358;2024-01-06T04:20:33;4.28;;;2.30;;
72275;SDS011;61204;49.980;8.358;2024-01-06T04:23:01;5.80;;;2.58;;
72275;SDS011;61204;49.980;8.358;2024-01-06T04:25:27;4.68;;;2.80;;
72275;SDS011;61204;49.980;8.358;2024-01-06T04:27:52;7.03;;;2.88;;
72275;SDS011;61204;49.980;8.358;2024-01-06T04:30:20;7.53;;;3.65;;
72275;SDS011;61204;49.980;8.358;2024-01-06T04:32:47;5.75;;;2.97;;
72275;SDS011;61204;49.980;8.358;2024-01-06T04:35:16;10.32;;;3.00;;
72275;SDS011;61204;49.980;8.358;2024-01-06T04:37:42;6.43;;;2.55;;
72275;SDS011;61204;49.980;8.358;2024-01-06T04:40:08;8.50;;;2.75;;
72275;SDS011;61204;49.980;8.358;2024-01-06T04:42:35;5.72;;;2.40;;
72275;SDS011;61204;49.980;8.358;2024-01-06T04:45:01;6.28;;;2.85;;
72275;SDS011;61204;49.980;8.358;2024-01-06T04:47:30;7.22;;;2.83;;
72275;SDS011;61204;49.980;8.358;2024-01-06T04:49:55;6.90;;;2.65;;
72275;SDS011;61204;49.980;8.358;2024-01-06T04:52:21;4.45;;;2.97;;
72275;SDS011;61204;49.980;8.358;2024-01-06T04:54:47;7.82;;;2.80;;
72275;SDS011;61204;49.980;8.358;2024-01-06T04:57:13;9.57;;;3.55;;
72275;SDS011;61204;49.980;8.358;2024-01-06T04:59:39;9.77;;;3.58;;
72275;SDS011;61204;49.980;8.358;2024-01-06T05:02:05;11.35;;;3.50;;
72275;SDS011;61204;49.980;8.358;2024-01-06T05:04:31;8.90;;;3.60;;
72275;SDS011;61204;49.980;8.358;2024-01-06T05:06:57;7.15;;;3.03;;
72275;SDS011;61204;49.980;8.358;2024-01-06T05:09:25;9.98;;;3.75;;
72275;SDS011;61204;49.980;8.358;2024-01-06T05:11:52;7.95;;;3.42;;
72275;SDS011;61204;49.980;8.358;2024-01-06T05:14:18;6.53;;;3.25;;
72275;SDS011;61204;49.980;8.358;2024-01-06T05:16:43;6.72;;;3.33;;
72275;SDS011;61204;49.980;8.358;2024-01-06T05:19:11;5.75;;;3.08;;
72275;SDS011;61204;49.980;8.358;2024-01-06T05:21:37;6.57;;;3.15;;
72275;SDS011;61204;49.980;8.358;2024-01-06T05:24:04;8.40;;;2.97;;
72275;SDS011;61204;49.980;8.358;2024-01-06T05:26:30;9.98;;;3.22;;
72275;SDS011;61204;49.980;8.358;2024-01-06T05:28:56;8.27;;;3.63;;
72275;SDS011;61204;49.980;8.358;2024-01-06T05:31:22;6.05;;;3.30;;
72275;SDS011;61204;49.980;8.358;2024-01-06T05:33:47;5.55;;;3.22;;
72275;SDS011;61204;49.980;8.358;2024-01-06T05:36:13;8.85;;;3.75;;
72275;SDS011;61204;49.980;8.358;2024-01-06T05:38:38;7.00;;;2.95;;
72275;SDS011;61204;49.980;8.358;2024-01-06T05:41:06;6.93;;;3.42;;
72275;SDS011;61204;49.980;8.358;2024-01-06T05:43:31;8.45;;;3.08;;
72275;SDS011;61204;49.980;8.358;2024-01-06T05:45:57;5.55;;;3.20;;
72275;SDS011;61204;49.980;8.358;2024-01-06T05:48:23;3.90;;;1.90;;
72275;SDS011;61204;49.980;8.358;2024-01-06T05:50:48;4.38;;;2.30;;
72275;SDS011;61204;49.980;8.358;2024-01-06T05:53:14;8.95;;;2.90;;
72275;SDS011;61204;49.980;8.358;2024-01-06T05:55:43;5.07;;;2.55;;
72275;SDS011;61204;49.980;8.358;2024-01-06T05:58:12;6.95;;;2.50;;
72275;SDS011;61204;49.980;8.358;2024-01-06T06:00:38;5.40;;;1.92;;
72275;SDS011;61204;49.980;8.358;2024-01-06T06:03:04;4.60;;;2.10;;
72275;SDS011;61204;49.980;8.358;2024-01-06T06:05:32;3.30;;;2.03;;
72275;SDS011;61204;49.980;8.358;2024-01-06T06:07:58;5.75;;;2.20;;
72275;SDS011;61204;49.980;8.358;2024-01-06T06:10:23;2.78;;;2.08;;
72275;SDS011;61204;49.980;8.358;2024-01-06T06:13:05;6.57;;;2.17;;
72275;SDS011;61204;49.980;8.358;2024-01-06T06:15:32;2.92;;;2.22;;
72275;SDS011;61204;49.980;8.358;2024-01-06T06:17:57;5.70;;;1.90;;
72275;SDS011;61204;49.980;8.358;2024-01-06T06:20:26;6.38;;;1.95;;
72275;SDS011;61204;49.980;8.358;2024-01-06T06:22:52;4.80;;;2.00;;
72275;SDS011;61204;49.980;8.358;2024-01-06T06:25:18;5.15;;;2.03;;
72275;SDS011;61204;49.980;8.358;2024-01-06T06:27:45;2.88;;;1.70;;
72275;SDS011;61204;49.980;8.358;2024-01-06T06:30:13;3.92;;;2.35;;
72275;SDS011;61204;49.980;8.358;2024-01-06T06:32:39;5.45;;;2.05;;
72275;SDS011;61204;49.980;8.358;2024-01-06T06:35:05;4.97;;;1.92;;
72275;SDS011;61204;49.980;8.358;2024-01-06T06:37:32;4.63;;;2.03;;
72275;SDS011;61204;49.980;8.358;2024-01-06T06:39:57;4.13;;;2.40;;
72275;SDS011;61204;49.980;8.358;2024-01-06T06:42:23;4.50;;;1.63;;
72275;SDS011;61204;49.980;8.358;2024-01-06T06:44:51;5.40;;;2.50;;
72275;SDS011;61204;49.980;8.358;2024-01-06T06:47:16;9.10;;;2.88;;
72275;SDS011;61204;49.980;8.358;2024-01-06T06:49:42;6.78;;;3.08;;
72275;SDS011;61204;49.980;8.358;2024-01-06T06:52:09;4.95;;;2.13;;
72275;SDS011;61204;49.980;8.358;2024-01-06T06:54:37;7.00;;;2.72;;
72275;SDS011;61204;49.980;8.358;2024-01-06T06:57:02;5.03;;;1.90;;
72275;SDS011;61204;49.980;8.358;2024-01-06T06:59:28;6.25;;;2.05;;
72275;SDS011;61204;49.980;8.358;2024-01-06T07:01:54;4.45;;;2.25;;
72275;SDS011;61204;49.980;8.358;2024-01-06T07:04:20;3.83;;;2.08;;
72275;SDS011;61204;49.980;8.358;2024-01-06T07:06:45;5.80;;;2.38;;
72275;SDS011;61204;49.980;8.358;2024-01-06T07:09:11;3.28;;;2.38;;
72275;SDS011;61204;49.980;8.358;2024-01-06T07:11:36;1.98;;;1.77;;
72275;SDS011;61204;49.980;8.358;2024-01-06T07:14:02;2.05;;;1.52;;
72275;SDS011;61204;49.980;8.358;2024-01-06T07:16:27;2.28;;;1.80;;
72275;SDS011;61204;49.980;8.358;2024-01-06T07:18:55;3.30;;;1.60;;
72275;SDS011;61204;49.980;8.358;2024-01-06T07:21:21;4.82;;;1.65;;
72275;SDS011;61204;49.980;8.358;2024-01-06T07:23:48;2.78;;;1.65;;
72275;SDS011;61204;49.980;8.358;2024-01-06T07:26:13;5.03;;;2.00;;
72275;SDS011;61204;49.980;8.358;2024-01-06T07:28:39;5.03;;;1.88;;
72275;SDS011;61204;49.980;8.358;2024-01-06T07:31:05;6.75;;;2.25;;
72275;SDS011;61204;49.980;8.358;2024-01-06T07:33:30;2.58;;;1.70;;
72275;SDS011;61204;49.980;8.358;2024-01-06T07:35:56;4.57;;;2.42;;
72275;SDS011;61204;49.980;8.358;2024-01-06T07:38:21;4.68;;;2.00;;
72275;SDS011;61204;49.980;8.358;2024-01-06T07:40:47;3.67;;;2.28;;
72275;SDS011;61204;49.980;8.358;2024-01-06T07:43:12;2.55;;;1.85;;
72275;SDS011;61204;49.980;8.358;2024-01-06T07:45:40;6.32;;;3.33;;
72275;SDS011;61204;49.980;8.358;2024-01-06T07:48:07;5.35;;;2.47;;
72275;SDS011;61204;49.980;8.358;2024-01-06T07:50:33;7.55;;;2.50;;
72275;SDS011;61204;49.980;8.358;2024-01-06T07:52:58;9.95;;;2.80;;
72275;SDS011;61204;49.980;8.358;2024-01-06T07:55:26;5.25;;;3.10;;
72275;SDS011;61204;49.980;8.358;2024-01-06T07:57:53;4.18;;;2.40;;
72275;SDS011;61204;49.980;8.358;2024-01-06T08:00:19;6.60;;;2.78;;
72275;SDS011;61204;49.980;8.358;2024-01-06T08:02:45;3.75;;;2.33;;
72275;SDS011;61204;49.980;8.358;2024-01-06T08:05:11;5.78;;;2.20;;
72275;SDS011;61204;49.980;8.358;2024-01-06T08:07:37;3.47;;;2.40;;
72275;SDS011;61204;49.980;8.358;2024-01-06T08:10:04;7.95;;;2.95;;
72275;SDS011;61204;49.980;8.358;2024-01-06T08:12:31;6.68;;;2.65;;
72275;SDS011;61204;49.980;8.358;2024-01-06T08:14:57;3.42;;;2.00;;
72275;SDS011;61204;49.980;8.358;2024-01-06T08:17:27;4.32;;;2.35;;
72275;SDS011;61204;49.980;8.358;2024-01-06T08:19:53;7.40;;;2.72;;
72275;SDS011;61204;49.980;8.358;2024-01-06T08:22:18;6.10;;;2.60;;
72275;SDS011;61204;49.980;8.358;2024-01-06T08:24:44;5.45;;;2.47;;
72275;SDS011;61204;49.980;8.358;2024-01-06T08:27:09;3.33;;;2.40;;
72275;SDS011;61204;49.980;8.358;2024-01-06T08:29:37;3.30;;;2.20;;
72275;SDS011;61204;49.980;8.358;2024-01-06T08:32:03;6.00;;;2.42;;
72275;SDS011;61204;49.980;8.358;2024-01-06T08:34:30;5.63;;;2.60;;
72275;SDS011;61204;49.980;8.358;2024-01-06T08:36:55;5.72;;;2.42;;
72275;SDS011;61204;49.980;8.358;2024-01-06T08:39:21;6.28;;;2.40;;
72275;SDS011;61204;49.980;8.358;2024-01-06T08:41:49;3.03;;;1.73;;
72275;SDS011;61204;49.980;8.358;2024-01-06T08:44:15;2.92;;;2.10;;
72275;SDS011;61204;49.980;8.358;2024-01-06T08:46:41;5.40;;;2.35;;
72275;SDS011;61204;49.980;8.358;2024-01-06T08:49:09;6.25;;;2.63;;
72275;SDS011;61204;49.980;8.358;2024-01-06T08:51:34;5.38;;;2.58;;
72275;SDS011;61204;49.980;8.358;2024-01-06T08:54:02;6.82;;;3.42;;
72275;SDS011;61204;49.980;8.358;2024-01-06T08:56:31;7.35;;;3.95;;
72275;SDS011;61204;49.980;8.358;2024-01-06T08:58:59;6.60;;;3.22;;
72275;SDS011;61204;49.980;8.358;2024-01-06T09:01:25;6.47;;;3.22;;
72275;SDS011;61204;49.980;8.358;2024-01-06T09:03:50;5.63;;;3.03;;
72275;SDS011;61204;49.980;8.358;2024-01-06T09:06:16;7.22;;;3.35;;
72275;SDS011;61204;49.980;8.358;2024-01-06T09:08:41;9.48;;;3.10;;
72275;SDS011;61204;49.980;8.358;2024-01-06T09:11:07;4.95;;;2.55;;
72275;SDS011;61204;49.980;8.358;2024-01-06T09:13:33;6.10;;;3.55;;
72275;SDS011;61204;49.980;8.358;2024-01-06T09:15:58;4.38;;;2.80;;
72275;SDS011;61204;49.980;8.358;2024-01-06T09:18:25;3.83;;;2.72;;
72275;SDS011;61204;49.980;8.358;2024-01-06T09:20:52;4.93;;;2.67;;
72275;SDS011;61204;49.980;8.358;2024-01-06T09:23:19;7.22;;;2.38;;
72275;SDS011;61204;49.980;8.358;2024-01-06T09:25:46;8.10;;;2.25;;
72275;SDS011;61204;49.980;8.358;2024-01-06T09:28:14;6.35;;;2.70;;
72275;SDS011;61204;49.980;8.358;2024-01-06T09:30:41;4.28;;;2.75;;
72275;SDS011;61204;49.980;8.358;2024-01-06T09:33:06;6.43;;;3.40;;
72275;SDS011;61204;49.980;8.358;2024-01-06T09:35:35;4.47;;;2.80;;
72275;SDS011;61204;49.980;8.358;2024-01-06T09:38:00;5.20;;;3.30;;
72275;SDS011;61204;49.980;8.358;2024-01-06T09:40:26;5.53;;;2.80;;
72275;SDS011;61204;49.980;8.358;2024-01-06T09:42:56;5.82;;;2.90;;
72275;SDS011;61204;49.980;8.358;2024-01-06T09:45:21;6.32;;;2.72;;
72275;SDS011;61204;49.980;8.358;2024-01-06T09:47:51;5.45;;;2.80;;
72275;SDS011;61204;49.980;8.358;2024-01-06T09:50:20;4.70;;;2.67;;
72275;SDS011;61204;49.980;8.358;2024-01-06T09:52:47;7.38;;;3.25;;
72275;SDS011;61204;49.980;8.358;2024-01-06T09:55:28;7.68;;;2.85;;
72275;SDS011;61204;49.980;8.358;2024-01-06T09:57:54;10.57;;;3.33;;
72275;SDS011;61204;49.980;8.358;2024-01-06T10:00:20;6.40;;;3.17;;
72275;SDS011;61204;49.980;8.358;2024-01-06T10:02:48;6.15;;;3.22;;
72275;SDS011;61204;49.980;8.358;2024-01-06T10:05:16;4.70;;;3.33;;
72275;SDS011;61204;49.980;8.358;2024-01-06T10:07:44;5.10;;;3.33;;
72275;SDS011;61204;49.980;8.358;2024-01-06T10:10:10;5.97;;;2.88;;
72275;SDS011;61204;49.980;8.358;2024-01-06T10:12:41;5.75;;;3.25;;
72275;SDS011;61204;49.980;8.358;2024-01-06T10:15:08;8.27;;;4.47;;
72275;SDS011;61204;49.980;8.358;2024-01-06T10:17:37;7.93;;;4.20;;
72275;SDS011;61204;49.980;8.358;2024-01-06T10:20:07;6.25;;;3.08;;
72275;SDS011;61204;49.980;8.358;2024-01-06T10:22:37;4.38;;;3.13;;
72275;SDS011;61204;49.980;8.358;2024-01-06T10:25:06;6.25;;;3.47;;
72275;SDS011;61204;49.980;8.358;2024-01-06T10:27:40;4.38;;;3.03;;
72275;SDS011;61204;49.980;8.358;2024-01-06T10:30:09;3.92;;;3.28;;
72275;SDS011;61204;49.980;8.358;2024-01-06T10:32:36;5.97;;;3.20;;
72275;SDS011;61204;49.980;8.358;2024-01-06T10:35:02;7.97;;;3.13;;
72275;SDS011;61204;49.980;8.358;2024-01-06T10:37:31;7.25;;;3.22;;
72275;SDS011;61204;49.980;8.358;2024-01-06T10:40:10;5.68;;;2.97;;
72275;SDS011;61204;49.980;8.358;2024-01-06T10:42:45;6.00;;;3.38;;
72275;SDS011;61204;49.980;8.358;2024-01-06T10:45:13;6.43;;;3.28;;
72275;SDS011;61204;49.980;8.358;2024-01-06T10:47:41;3.90;;;3.20;;
72275;SDS011;61204;49.980;8.358;2024-01-06T10:50:08;6.30;;;3.20;;
72275;SDS011;61204;49.980;8.358;2024-01-06T10:52:35;7.50;;;3.95;;
72275;SDS011;61204;49.980;8.358;2024-01-06T10:55:04;7.30;;;3.97;;
72275;SDS011;61204;49.980;8.358;2024-01-06T10:57:31;6.35;;;3.20;;
72275;SDS011;61204;49.980;8.358;2024-01-06T10:59:57;6.35;;;3.00;;
72275;SDS011;61204;49.980;8.358;2024-01-06T11:02:25;4.03;;;2.88;;
72275;SDS011;61204;49.980;8.358;2024-01-06T11:04:58;4.63;;;2.92;;
72275;SDS011;61204;49.980;8.358;2024-01-06T11:07:28;6.05;;;3.28;;
72275;SDS011;61204;49.980;8.358;2024-01-06T11:09:57;7.05;;;3.38;;
72275;SDS011;61204;49.980;8.358;2024-01-06T11:12:43;4.65;;;2.90;;
72275;SDS011;61204;49.980;8.358;2024-01-06T11:15:09;5.72;;;2.95;;
72275;SDS011;61204;49.980;8.358;2024-01-06T11:17:53;7.93;;;3.13;;
72275;SDS011;61204;49.980;8.358;2024-01-06T11:20:23;6.40;;;3.33;;
72275;SDS011;61204;49.980;8.358;2024-01-06T11:22:52;6.43;;;3.42;;
72275;SDS011;61204;49.980;8.358;2024-01-06T11:25:19;4.70;;;2.95;;
72275;SDS011;61204;49.980;8.358;2024-01-06T11:27:47;6.78;;;3.28;;
72275;SDS011;61204;49.980;8.358;2024-01-06T11:30:21;5.43;;;2.60;;
72275;SDS011;61204;49.980;8.358;2024-01-06T11:32:55;7.65;;;3.20;;
72275;SDS011;61204;49.980;8.358;2024-01-06T11:35:25;5.25;;;2.92;;
72275;SDS011;61204;49.980;8.358;2024-01-06T11:37:54;4.45;;;2.72;;
72275;SDS011;61204;49.980;8.358;2024-01-06T11:40:27;4.15;;;2.60;;
72275;SDS011;61204;49.980;8.358;2024-01-06T11:43:09;8.25;;;3.20;;
72275;SDS011;61204;49.980;8.358;2024-01-06T11:45:39;5.40;;;2.58;;
72275;SDS011;61204;49.980;8.358;2024-01-06T11:48:08;4.65;;;2.75;;
72275;SDS011;61204;49.980;8.358;2024-01-06T11:50:39;4.10;;;2.70;;
72275;SDS011;61204;49.980;8.358;2024-01-06T11:53:07;4.18;;;2.50;;
72275;SDS011;61204;49.980;8.358;2024-01-06T11:55:35;6.10;;;3.78;;
72275;SDS011;61204;49.980;8.358;2024-01-06T11:58:03;4.43;;;2.83;;
72275;SDS011;61204;49.980;8.358;2024-01-06T12:00:33;6.20;;;3.42;;
72275;SDS011;61204;49.980;8.358;2024-01-06T12:03:04;5.25;;;2.45;;
72275;SDS011;61204;49.980;8.358;2024-01-06T12:05:32;9.88;;;2.83;;
72275;SDS011;61204;49.980;8.358;2024-01-06T12:07:59;5.60;;;2.88;;
72275;SDS011;61204;49.980;8.358;2024-01-06T12:10:32;7.50;;;2.97;;
72275;SDS011;61204;49.980;8.358;2024-01-06T12:13:02;6.15;;;2.63;;
72275;SDS011;61204;49.980;8.358;2024-01-06T12:15:33;4.00;;;2.45;;
72275;SDS011;61204;49.980;8.358;2024-01-06T12:18:02;6.93;;;4.20;;
72275;SDS011;61204;49.980;8.358;2024-01-06T12:20:29;6.40;;;4.00;;
72275;SDS011;61204;49.980;8.358;2024-01-06T12:22:55;5.75;;;3.17;;
72275;SDS011;61204;49.980;8.358;2024-01-06T12:25:21;4.75;;;2.67;;
72275;SDS011;61204;49.980;8.358;2024-01-06T12:27:51;3.80;;;2.60;;
72275;SDS011;61204;49.980;8.358;2024-01-06T12:30:21;5.82;;;2.92;;
72275;SDS011;61204;49.980;8.358;2024-01-06T12:32:49;5.80;;;3.30;;
72275;SDS011;61204;49.980;8.358;2024-01-06T12:35:17;4.03;;;2.83;;
72275;SDS011;61204;49.980;8.358;2024-01-06T12:37:44;5.10;;;3.60;;
72275;SDS011;61204;49.980;8.358;2024-01-06T12:40:13;5.88;;;3.53;;
72275;SDS011;61204;49.980;8.358;2024-01-06T12:42:44;6.60;;;3.30;;
72275;SDS011;61204;49.980;8.358;2024-01-06T12:45:11;5.60;;;3.08;;
72275;SDS011;61204;49.980;8.358;2024-01-06T12:47:37;6.00;;;3.70;;
72275;SDS011;61204;49.980;8.358;2024-01-06T12:50:04;8.50;;;3.13;;
72275;SDS011;61204;49.980;8.358;2024-01-06T12:52:31;7.05;;;3.65;;
72275;SDS011;61204;49.980;8.358;2024-01-06T12:54:58;7.93;;;3.65;;
72275;SDS011;61204;49.980;8.358;2024-01-06T12:57:24;7.82;;;4.10;;
72275;SDS011;61204;49.980;8.358;2024-01-06T12:59:50;4.60;;;3.35;;
72275;SDS011;61204;49.980;8.358;2024-01-06T13:02:15;9.25;;;4.35;;
72275;SDS011;61204;49.980;8.358;2024-01-06T13:04:46;9.98;;;5.78;;
72275;SDS011;61204;49.980;8.358;2024-01-06T13:07:11;6.57;;;3.58;;
72275;SDS011;61204;49.980;8.358;2024-01-06T13:09:37;6.18;;;4.63;;
72275;SDS011;61204;49.980;8.358;2024-01-06T13:12:04;5.85;;;3.65;;
72275;SDS011;61204;49.980;8.358;2024-01-06T13:14:30;5.22;;;4.05;;
72275;SDS011;61204;49.980;8.358;2024-01-06T13:16:56;9.32;;;4.10;;
72275;SDS011;61204;49.980;8.358;2024-01-06T13:19:22;6.32;;;4.10;;
72275;SDS011;61204;49.980;8.358;2024-01-06T13:21:49;5.43;;;3.70;;
72275;SDS011;61204;49.980;8.358;2024-01-06T13:24:14;9.48;;;4.32;;
72275;SDS011;61204;49.980;8.358;2024-01-06T13:26:40;6.30;;;4.45;;
72275;SDS011;61204;49.980;8.358;2024-01-06T13:29:06;5.70;;;3.92;;
72275;SDS011;61204;49.980;8.358;2024-01-06T13:31:32;6.68;;;4.07;;
72275;SDS011;61204;49.980;8.358;2024-01-06T13:33:57;7.32;;;4.13;;
72275;SDS011;61204;49.980;8.358;2024-01-06T13:36:23;5.43;;;4.55;;
72275;SDS011;61204;49.980;8.358;2024-01-06T13:38:49;6.10;;;4.18;;
72275;SDS011;61204;49.980;8.358;2024-01-06T13:41:15;5.85;;;3.65;;
72275;SDS011;61204;49.980;8.358;2024-01-06T13:43:43;8.55;;;4.40;;
72275;SDS011;61204;49.980;8.358;2024-01-06T13:46:08;6.80;;;4.28;;
72275;SDS011;61204;49.980;8.358;2024-01-06T13:48:38;9.13;;;4.45;;
72275;SDS011;61204;49.980;8.358;2024-01-06T13:51:08;8.65;;;3.78;;
72275;SDS011;61204;49.980;8.358;2024-01-06T13:53:34;11.65;;;5.68;;
72275;SDS011;61204;49.980;8.358;2024-01-06T13:56:00;10.70;;;5.53;;
72275;SDS011;61204;49.980;8.358;2024-01-06T13:58:25;8.13;;;5.32;;
72275;SDS011;61204;49.980;8.358;2024-01-06T14:00:51;10.57;;;5.45;;
72275;SDS011;61204;49.980;8.358;2024-01-06T14:03:16;8.32;;;5.05;;
72275;SDS011;61204;49.980;8.358;2024-01-06T14:05:47;6.85;;;4.63;;
72275;SDS011;61204;49.980;8.358;2024-01-06T14:08:13;8.05;;;5.60;;
72275;SDS011;61204;49.980;8.358;2024-01-06T14:10:41;10.60;;;4.93;;
72275;SDS011;61204;49.980;8.358;2024-01-06T14:13:07;8.35;;;4.35;;
72275;SDS011;61204;49.980;8.358;2024-01-06T14:15:32;9.98;;;4.68;;
72275;SDS011;61204;49.980;8.358;2024-01-06T14:18:01;7.80;;;4.97;;
72275;SDS011;61204;49.980;8.358;2024-01-06T14:20:31;11.75;;;5.72;;
72275;SDS011;61204;49.980;8.358;2024-01-06T14:22:59;10.25;;;5.35;;
72275;SDS011;61204;49.980;8.358;2024-01-06T14:25:25;10.02;;;5.68;;
72275;SDS011;61204;49.980;8.358;2024-01-06T14:27:50;8.05;;;5.53;;
72275;SDS011;61204;49.980;8.358;2024-01-06T14:30:16;11.55;;;5.90;;
72275;SDS011;61204;49.980;8.358;2024-01-06T14:32:42;9.60;;;5.85;;
72275;SDS011;61204;49.980;8.358;2024-01-06T14:35:07;10.93;;;5.57;;
72275;SDS011;61204;49.980;8.358;2024-01-06T14:37:36;10.35;;;5.13;;
72275;SDS011;61204;49.980;8.358;2024-01-06T14:40:03;11.63;;;5.80;;
72275;SDS011;61204;49.980;8.358;2024-01-06T14:42:31;10.00;;;5.88;;
72275;SDS011;61204;49.980;8.358;2024-01-06T14:45:01;11.93;;;6.07;;
72275;SDS011;61204;49.980;8.358;2024-01-06T14:47:29;11.85;;;5.88;;